NOAA Weather Radio

Lightning Safety

Turn Around Don't Drown
Storm Ready
SkyWarn
WACO REGIONAL AIRPORT, TX, United States (KACT) 31-36N 97-13W 151M
Jul 04, 2015 - 09:51 PM EDT / 2015.07.05 0151 UTC
Wind: from the SSE (160 degrees) at 14 MPH (12 KT):0
Visibility: 10 mile(s):0
Sky conditions: clear
Temperature: 84.9 F (29.4 C)
Dew Point: 71.1 F (21.7 C)
Relative Humidity: 63%
Pressure (altimeter): 29.92 in. Hg (1013 hPa)
ob: KACT 050151Z 16012KT 10SM CLR 29/22 A2992 RMK AO2 SLP124 T02940217 
cycle: 2